Impacts METAR Board
IDs:

KLAX - Los Angeles Intl, CA, US

Updated at: 0900 UTC 17 Feb 2019
Potential Impact None Slight Moderate High
Time 16/21Z 16/22Z 16/23Z 17/00Z 17/01Z 17/02Z 17/03Z 17/04Z 17/05Z 17/06Z 17/07Z 17/08Z 17/09Z
Temp58 59 59 59 58 56 56 55 54 54 53 53 52
Dewpt40 40 43 43 45 45 45 42 42 40 40 40 40
Altim30.11 30.08 30.07 30.08 30.07 30.07 30.08 30.08 30.09 30.09 30.09 30.09 30.08
VIS10 10 10 10 10 10 10 10 10 10 10 10 10
CIG-- -- -- -- -- -- -- -- -- -- -- -- --
CoverSCTSCTSCTSCTSCTSCTFEWFEWCLRCLRCLRFEWFEW
FltCatVFRVFRVFRVFRVFRVFRVFRVFRVFRVFRVFRVFRVFR
WX--------------------------
WDir240270260260270270270270310300280290300
WSpd10 15 17 19 24 26 25 22 7 9 15 12 10
WGst-- -- -- -- -- -- -- -- -- -- -- 18 18
Raw hourly METARs
KLAX 162053Z 24010KT 10SM FEW043 SCT060 14/04 A3011 RMK AO2 SLP196 T01440044 58014
KLAX 162153Z 27015KT 10SM FEW026 FEW043 SCT055 SCT280 15/04 A3008 RMK AO2 SLP186 T01500044
KLAX 162253Z 26017KT 10SM FEW026 FEW043 SCT055 15/06 A3007 RMK AO2 SLP183 T01500061
KLAX 162353Z 26019KT 10SM FEW043 SCT055 15/06 A3008 RMK AO2 SLP185 T01500061 10150 20128 55012
KLAX 170053Z 27024KT 10SM SCT060 14/07 A3007 RMK AO2 PK WND 26027/0052 SLP183 T01440072
KLAX 170153Z 27026KT 10SM SCT060 13/07 A3007 RMK AO2 PK WND 26031/0143 SLP184 T01330072
KLAX 170253Z 27025KT 10SM FEW060 13/07 A3008 RMK AO2 PK WND 26031/0210 SLP185 T01330072 55000
KLAX 170353Z 27022KT 10SM FEW060 13/06 A3008 RMK AO2 PK WND 27029/0256 SLP186 T01280056
KLAX 170453Z 31007KT 10SM CLR 12/06 A3009 RMK AO2 PK WND 27028/0358 SLP189 T01220056
KLAX 170553Z 30009KT 10SM CLR 12/04 A3009 RMK AO2 SLP189 T01220044 10150 20117 51004
KLAX 170653Z 28015KT 10SM CLR 12/04 A3009 RMK AO2 SLP189 T01170044
KLAX 170753Z 29012G18KT 10SM FEW020 12/04 A3009 RMK AO2 SLP188 T01170044 401500089
KLAX 170853Z 30010G18KT 10SM FEW020 11/04 A3008 RMK AO2 PK WND 29027/0809 SLP184 T01110044 58004



Page loaded:  09:20 UTC  |   01:20 AM Pacific  |   02:20 AM Mountain  |   03:20 AM Central  |   04:20 AM Eastern

 

ADVISORIES

FORECASTS

FORECASTS

OBSERVATIONS

USER TOOLS

ABOUT US